sensor_id;sensor_type;location;lat;lon;timestamp;temperature;humidity
22426;DHT22;11380;50.822;15.790;2022-11-06T00:04:15;1.90;1.00
22426;DHT22;11380;50.822;15.790;2022-11-06T00:09:20;1.80;1.00
22426;DHT22;11380;50.822;15.790;2022-11-06T00:14:26;1.90;1.00
22426;DHT22;11380;50.822;15.790;2022-11-06T00:19:31;1.80;1.00
22426;DHT22;11380;50.822;15.790;2022-11-06T00:24:36;1.40;1.00
22426;DHT22;11380;50.822;15.790;2022-11-06T00:29:41;1.50;1.30
22426;DHT22;11380;50.822;15.790;2022-11-06T00:34:47;1.60;1.00
22426;DHT22;11380;50.822;15.790;2022-11-06T00:39:52;1.60;1.00
22426;DHT22;11380;50.822;15.790;2022-11-06T00:44:58;1.70;1.00
22426;DHT22;11380;50.822;15.790;2022-11-06T00:50:03;1.40;1.00
22426;DHT22;11380;50.822;15.790;2022-11-06T00:55:09;1.10;90.10
22426;DHT22;11380;50.822;15.790;2022-11-06T01:00:15;0.90;99.90
22426;DHT22;11380;50.822;15.790;2022-11-06T01:05:23;1.20;99.90
22426;DHT22;11380;50.822;15.790;2022-11-06T01:10:28;1.40;99.90
22426;DHT22;11380;50.822;15.790;2022-11-06T01:15:35;1.40;99.90
22426;DHT22;11380;50.822;15.790;2022-11-06T01:20:40;1.30;99.90
22426;DHT22;11380;50.822;15.790;2022-11-06T01:25:56;1.40;61.30
22426;DHT22;11380;50.822;15.790;2022-11-06T01:31:04;1.30;1.00
22426;DHT22;11380;50.822;15.790;2022-11-06T01:36:11;1.40;15.80
22426;DHT22;11380;50.822;15.790;2022-11-06T01:41:25;1.50;27.10
22426;DHT22;11380;50.822;15.790;2022-11-06T01:46:33;1.20;5.40
22426;DHT22;11380;50.822;15.790;2022-11-06T01:51:54;1.00;39.60
22426;DHT22;11380;50.822;15.790;2022-11-06T01:57:01;0.90;5.60
22426;DHT22;11380;50.822;15.790;2022-11-06T02:02:07;0.60;74.40
22426;DHT22;11380;50.822;15.790;2022-11-06T02:07:13;0.90;99.90
22426;DHT22;11380;50.822;15.790;2022-11-06T02:18:03;1.10;12.40
22426;DHT22;11380;50.822;15.790;2022-11-06T02:23:30;1.10;10.40
22426;DHT22;11380;50.822;15.790;2022-11-06T02:28:33;1.10;1.00
22426;DHT22;11380;50.822;15.790;2022-11-06T02:33:51;1.10;1.00
22426;DHT22;11380;50.822;15.790;2022-11-06T02:38:49;1.30;1.00
22426;DHT22;11380;50.822;15.790;2022-11-06T02:43:56;1.20;1.00
22426;DHT22;11380;50.822;15.790;2022-11-06T02:49:06;1.00;1.00
22426;DHT22;11380;50.822;15.790;2022-11-06T02:54:11;0.90;1.00
22426;DHT22;11380;50.822;15.790;2022-11-06T02:59:23;0.70;17.00
22426;DHT22;11380;50.822;15.790;2022-11-06T03:04:38;0.70;92.40
22426;DHT22;11380;50.822;15.790;2022-11-06T03:09:44;0.80;74.60
22426;DHT22;11380;50.822;15.790;2022-11-06T03:20:24;0.90;28.70
22426;DHT22;11380;50.822;15.790;2022-11-06T03:25:29;1.00;16.40
22426;DHT22;11380;50.822;15.790;2022-11-06T03:30:37;0.80;1.00
22426;DHT22;11380;50.822;15.790;2022-11-06T03:35:56;0.90;15.90
22426;DHT22;11380;50.822;15.790;2022-11-06T03:41:06;0.40;1.00
22426;DHT22;11380;50.822;15.790;2022-11-06T03:46:14;0.40;11.10
22426;DHT22;11380;50.822;15.790;2022-11-06T03:51:25;0.60;24.50
22426;DHT22;11380;50.822;15.790;2022-11-06T03:56:42;0.50;13.40
22426;DHT22;11380;50.822;15.790;2022-11-06T04:01:44;0.70;37.70
22426;DHT22;11380;50.822;15.790;2022-11-06T04:12:06;0.80;1.00
22426;DHT22;11380;50.822;15.790;2022-11-06T04:17:30;0.80;1.00
22426;DHT22;11380;50.822;15.790;2022-11-06T04:22:52;0.60;1.00
22426;DHT22;11380;50.822;15.790;2022-11-06T04:39:17;0.60;82.70
22426;DHT22;11380;50.822;15.790;2022-11-06T04:44:31;0.70;99.90
22426;DHT22;11380;50.822;15.790;2022-11-06T04:49:40;0.70;59.60
22426;DHT22;11380;50.822;15.790;2022-11-06T04:54:46;0.70;1.00
22426;DHT22;11380;50.822;15.790;2022-11-06T04:59:51;0.70;1.00
22426;DHT22;11380;50.822;15.790;2022-11-06T05:04:57;0.50;1.00
22426;DHT22;11380;50.822;15.790;2022-11-06T05:10:02;0.50;1.00
22426;DHT22;11380;50.822;15.790;2022-11-06T05:15:08;0.60;1.00
22426;DHT22;11380;50.822;15.790;2022-11-06T05:20:13;0.50;1.00
22426;DHT22;11380;50.822;15.790;2022-11-06T05:25:18;0.60;1.00
22426;DHT22;11380;50.822;15.790;2022-11-06T05:30:25;0.40;1.00
22426;DHT22;11380;50.822;15.790;2022-11-06T05:35:32;0.30;1.00
22426;DHT22;11380;50.822;15.790;2022-11-06T05:40:37;0.50;99.90
22426;DHT22;11380;50.822;15.790;2022-11-06T05:45:43;0.40;71.50
22426;DHT22;11380;50.822;15.790;2022-11-06T05:50:48;0.40;75.80
22426;DHT22;11380;50.822;15.790;2022-11-06T05:55:53;0.50;13.60
22426;DHT22;11380;50.822;15.790;2022-11-06T06:00:58;0.60;1.00
22426;DHT22;11380;50.822;15.790;2022-11-06T06:06:03;0.50;1.00
22426;DHT22;11380;50.822;15.790;2022-11-06T06:11:08;0.50;1.00
22426;DHT22;11380;50.822;15.790;2022-11-06T06:16:13;0.60;1.00
22426;DHT22;11380;50.822;15.790;2022-11-06T06:21:19;0.50;1.00
22426;DHT22;11380;50.822;15.790;2022-11-06T06:26:25;0.40;1.00
22426;DHT22;11380;50.822;15.790;2022-11-06T06:31:30;0.60;1.00
22426;DHT22;11380;50.822;15.790;2022-11-06T06:36:36;0.60;1.00
22426;DHT22;11380;50.822;15.790;2022-11-06T06:41:41;0.80;1.00
22426;DHT22;11380;50.822;15.790;2022-11-06T06:46:46;0.70;1.00
22426;DHT22;11380;50.822;15.790;2022-11-06T06:51:52;0.60;1.00
22426;DHT22;11380;50.822;15.790;2022-11-06T06:56:58;0.50;1.00
22426;DHT22;11380;50.822;15.790;2022-11-06T07:02:03;0.60;1.00
22426;DHT22;11380;50.822;15.790;2022-11-06T07:07:08;0.80;1.00
22426;DHT22;11380;50.822;15.790;2022-11-06T07:12:13;0.90;1.00
22426;DHT22;11380;50.822;15.790;2022-11-06T07:17:18;1.00;1.00
22426;DHT22;11380;50.822;15.790;2022-11-06T07:22:27;1.10;1.00
22426;DHT22;11380;50.822;15.790;2022-11-06T07:27:35;1.80;1.00
22426;DHT22;11380;50.822;15.790;2022-11-06T07:32:40;2.10;1.00
22426;DHT22;11380;50.822;15.790;2022-11-06T07:37:44;2.20;1.00
22426;DHT22;11380;50.822;15.790;2022-11-06T07:42:50;2.70;1.00
22426;DHT22;11380;50.822;15.790;2022-11-06T07:47:56;3.10;1.00
22426;DHT22;11380;50.822;15.790;2022-11-06T07:53:03;3.20;1.00
22426;DHT22;11380;50.822;15.790;2022-11-06T07:58:08;3.50;1.00
22426;DHT22;11380;50.822;15.790;2022-11-06T08:03:14;3.70;1.00
22426;DHT22;11380;50.822;15.790;2022-11-06T08:08:19;4.10;1.00
22426;DHT22;11380;50.822;15.790;2022-11-06T08:13:24;4.70;1.00
22426;DHT22;11380;50.822;15.790;2022-11-06T08:18:29;4.60;1.00
22426;DHT22;11380;50.822;15.790;2022-11-06T08:23:35;5.00;1.00
22426;DHT22;11380;50.822;15.790;2022-11-06T08:28:41;5.40;1.00
22426;DHT22;11380;50.822;15.790;2022-11-06T08:33:46;5.90;1.00
22426;DHT22;11380;50.822;15.790;2022-11-06T08:38:51;6.10;1.00
22426;DHT22;11380;50.822;15.790;2022-11-06T08:43:57;6.40;1.00
22426;DHT22;11380;50.822;15.790;2022-11-06T08:49:02;6.60;1.00
22426;DHT22;11380;50.822;15.790;2022-11-06T08:54:09;6.90;1.00
22426;DHT22;11380;50.822;15.790;2022-11-06T08:59:15;6.70;1.00
22426;DHT22;11380;50.822;15.790;2022-11-06T09:04:20;7.50;1.00
22426;DHT22;11380;50.822;15.790;2022-11-06T09:09:26;7.90;1.00
22426;DHT22;11380;50.822;15.790;2022-11-06T09:14:33;8.30;1.00
22426;DHT22;11380;50.822;15.790;2022-11-06T09:19:38;8.40;99.90
22426;DHT22;11380;50.822;15.790;2022-11-06T09:24:43;8.00;99.90
22426;DHT22;11380;50.822;15.790;2022-11-06T09:29:49;8.00;1.00
22426;DHT22;11380;50.822;15.790;2022-11-06T09:34:55;8.90;99.90
22426;DHT22;11380;50.822;15.790;2022-11-06T09:40:01;8.80;99.90
22426;DHT22;11380;50.822;15.790;2022-11-06T09:45:16;9.70;99.90
22426;DHT22;11380;50.822;15.790;2022-11-06T09:50:26;10.00;88.70
22426;DHT22;11380;50.822;15.790;2022-11-06T09:55:33;10.40;1.00
22426;DHT22;11380;50.822;15.790;2022-11-06T10:00:40;10.60;99.90
22426;DHT22;11380;50.822;15.790;2022-11-06T10:05:45;10.00;68.40
22426;DHT22;11380;50.822;15.790;2022-11-06T10:11:00;10.30;99.90
22426;DHT22;11380;50.822;15.790;2022-11-06T10:26:52;11.20;99.90
22426;DHT22;11380;50.822;15.790;2022-11-06T10:37:30;11.70;99.90
22426;DHT22;11380;50.822;15.790;2022-11-06T10:42:36;11.70;99.90
22426;DHT22;11380;50.822;15.790;2022-11-06T10:47:56;11.50;99.90
22426;DHT22;11380;50.822;15.790;2022-11-06T10:53:08;11.50;99.90
22426;DHT22;11380;50.822;15.790;2022-11-06T10:58:22;12.10;99.90
22426;DHT22;11380;50.822;15.790;2022-11-06T11:03:38;12.10;99.90
22426;DHT22;11380;50.822;15.790;2022-11-06T11:08:47;12.30;99.90
22426;DHT22;11380;50.822;15.790;2022-11-06T11:19:35;12.40;99.90
22426;DHT22;11380;50.822;15.790;2022-11-06T11:24:58;12.30;99.90
22426;DHT22;11380;50.822;15.790;2022-11-06T11:30:05;12.20;99.90
22426;DHT22;11380;50.822;15.790;2022-11-06T11:35:10;12.00;99.90
22426;DHT22;11380;50.822;15.790;2022-11-06T11:40:37;12.10;99.90
22426;DHT22;11380;50.822;15.790;2022-11-06T11:45:40;12.20;99.90
22426;DHT22;11380;50.822;15.790;2022-11-06T11:50:45;12.00;99.90
22426;DHT22;11380;50.822;15.790;2022-11-06T11:55:51;12.20;99.90
22426;DHT22;11380;50.822;15.790;2022-11-06T12:01:02;12.20;99.90
22426;DHT22;11380;50.822;15.790;2022-11-06T12:06:16;12.00;99.90
22426;DHT22;11380;50.822;15.790;2022-11-06T12:11:22;12.10;99.90
22426;DHT22;11380;50.822;15.790;2022-11-06T12:16:29;12.10;99.90
22426;DHT22;11380;50.822;15.790;2022-11-06T12:21:35;12.10;99.90
22426;DHT22;11380;50.822;15.790;2022-11-06T12:26:50;11.80;99.90
22426;DHT22;11380;50.822;15.790;2022-11-06T12:48:12;11.70;99.90
22426;DHT22;11380;50.822;15.790;2022-11-06T12:58:50;11.80;99.90
22426;DHT22;11380;50.822;15.790;2022-11-06T13:09:40;11.70;99.90
22426;DHT22;11380;50.822;15.790;2022-11-06T13:14:28;11.90;99.90
22426;DHT22;11380;50.822;15.790;2022-11-06T13:30:09;12.00;99.90
22426;DHT22;11380;50.822;15.790;2022-11-06T13:35:16;11.90;99.90
22426;DHT22;11380;50.822;15.790;2022-11-06T13:40:35;11.80;99.90
22426;DHT22;11380;50.822;15.790;2022-11-06T13:45:50;11.60;99.90
22426;DHT22;11380;50.822;15.790;2022-11-06T13:56:13;11.50;99.90
22426;DHT22;11380;50.822;15.790;2022-11-06T14:06:42;11.10;99.90
22426;DHT22;11380;50.822;15.790;2022-11-06T14:11:54;10.60;99.90
22426;DHT22;11380;50.822;15.790;2022-11-06T14:17:08;10.50;99.90
22426;DHT22;11380;50.822;15.790;2022-11-06T14:22:25;10.20;99.90
22426;DHT22;11380;50.822;15.790;2022-11-06T14:32:45;9.60;99.90
22426;DHT22;11380;50.822;15.790;2022-11-06T14:37:50;9.50;99.90
22426;DHT22;11380;50.822;15.790;2022-11-06T14:42:57;9.40;99.90
22426;DHT22;11380;50.822;15.790;2022-11-06T14:48:03;9.40;99.90
22426;DHT22;11380;50.822;15.790;2022-11-06T14:53:29;8.90;99.90
22426;DHT22;11380;50.822;15.790;2022-11-06T14:58:46;8.90;99.90
22426;DHT22;11380;50.822;15.790;2022-11-06T15:03:51;8.80;99.90
22426;DHT22;11380;50.822;15.790;2022-11-06T15:09:06;8.20;99.90
22426;DHT22;11380;50.822;15.790;2022-11-06T15:19:25;8.10;99.90
22426;DHT22;11380;50.822;15.790;2022-11-06T15:24:43;8.00;99.90
22426;DHT22;11380;50.822;15.790;2022-11-06T15:29:54;7.80;99.90
22426;DHT22;11380;50.822;15.790;2022-11-06T15:45:29;6.90;1.00
22426;DHT22;11380;50.822;15.790;2022-11-06T15:50:35;7.00;1.00
22426;DHT22;11380;50.822;15.790;2022-11-06T15:56:00;6.80;1.00
22426;DHT22;11380;50.822;15.790;2022-11-06T16:01:09;7.00;99.90
22426;DHT22;11380;50.822;15.790;2022-11-06T16:06:13;6.80;99.90
22426;DHT22;11380;50.822;15.790;2022-11-06T16:11:19;6.70;99.90
22426;DHT22;11380;50.822;15.790;2022-11-06T16:21:46;6.50;99.90
22426;DHT22;11380;50.822;15.790;2022-11-06T16:26:50;6.20;1.00
22426;DHT22;11380;50.822;15.790;2022-11-06T16:32:00;6.00;1.00
22426;DHT22;11380;50.822;15.790;2022-11-06T16:42:34;6.00;1.00
22426;DHT22;11380;50.822;15.790;2022-11-06T16:47:39;5.50;1.00
22426;DHT22;11380;50.822;15.790;2022-11-06T16:52:50;5.40;1.00
22426;DHT22;11380;50.822;15.790;2022-11-06T16:57:56;5.00;1.00
22426;DHT22;11380;50.822;15.790;2022-11-06T17:03:07;4.40;1.00
22426;DHT22;11380;50.822;15.790;2022-11-06T17:08:33;4.40;1.00
22426;DHT22;11380;50.822;15.790;2022-11-06T17:13:37;4.30;1.00
22426;DHT22;11380;50.822;15.790;2022-11-06T17:18:46;4.40;1.00
22426;DHT22;11380;50.822;15.790;2022-11-06T17:23:51;4.40;1.00
22426;DHT22;11380;50.822;15.790;2022-11-06T17:29:00;4.40;1.00
22426;DHT22;11380;50.822;15.790;2022-11-06T17:34:05;4.10;1.00
22426;DHT22;11380;50.822;15.790;2022-11-06T17:39:10;3.80;1.00
22426;DHT22;11380;50.822;15.790;2022-11-06T17:44:16;3.90;1.00
22426;DHT22;11380;50.822;15.790;2022-11-06T17:49:22;3.50;1.00
22426;DHT22;11380;50.822;15.790;2022-11-06T17:54:30;3.60;1.00
22426;DHT22;11380;50.822;15.790;2022-11-06T17:59:35;3.40;1.00
22426;DHT22;11380;50.822;15.790;2022-11-06T18:04:41;3.30;1.00
22426;DHT22;11380;50.822;15.790;2022-11-06T18:09:46;2.90;1.00
22426;DHT22;11380;50.822;15.790;2022-11-06T18:14:51;3.10;1.00
22426;DHT22;11380;50.822;15.790;2022-11-06T18:19:58;3.20;1.00
22426;DHT22;11380;50.822;15.790;2022-11-06T18:25:04;2.90;1.00
22426;DHT22;11380;50.822;15.790;2022-11-06T18:30:10;2.90;1.00
22426;DHT22;11380;50.822;15.790;2022-11-06T18:35:16;3.20;1.00
22426;DHT22;11380;50.822;15.790;2022-11-06T18:40:21;3.30;1.00
22426;DHT22;11380;50.822;15.790;2022-11-06T18:45:26;3.00;1.00
22426;DHT22;11380;50.822;15.790;2022-11-06T18:50:33;2.60;1.00
22426;DHT22;11380;50.822;15.790;2022-11-06T18:55:43;2.60;1.00
22426;DHT22;11380;50.822;15.790;2022-11-06T19:00:49;2.80;1.00
22426;DHT22;11380;50.822;15.790;2022-11-06T19:05:55;2.60;1.00
22426;DHT22;11380;50.822;15.790;2022-11-06T19:11:02;2.70;1.00
22426;DHT22;11380;50.822;15.790;2022-11-06T19:16:08;2.80;1.00
22426;DHT22;11380;50.822;15.790;2022-11-06T19:21:15;2.30;1.00
22426;DHT22;11380;50.822;15.790;2022-11-06T19:26:20;2.30;1.00
22426;DHT22;11380;50.822;15.790;2022-11-06T19:31:28;2.40;1.00
22426;DHT22;11380;50.822;15.790;2022-11-06T19:36:34;2.40;1.00
22426;DHT22;11380;50.822;15.790;2022-11-06T19:41:39;2.40;1.00
22426;DHT22;11380;50.822;15.790;2022-11-06T19:46:44;2.30;1.00
22426;DHT22;11380;50.822;15.790;2022-11-06T19:51:49;2.20;27.30
22426;DHT22;11380;50.822;15.790;2022-11-06T19:56:54;2.40;1.00
22426;DHT22;11380;50.822;15.790;2022-11-06T20:02:01;2.50;3.20
22426;DHT22;11380;50.822;15.790;2022-11-06T20:07:08;2.40;1.00
22426;DHT22;11380;50.822;15.790;2022-11-06T20:12:13;2.30;1.00
22426;DHT22;11380;50.822;15.790;2022-11-06T20:17:19;2.30;1.00
22426;DHT22;11380;50.822;15.790;2022-11-06T20:22:25;2.20;1.00
22426;DHT22;11380;50.822;15.790;2022-11-06T20:27:31;1.90;1.00
22426;DHT22;11380;50.822;15.790;2022-11-06T20:32:37;2.20;99.90
22426;DHT22;11380;50.822;15.790;2022-11-06T20:37:43;2.30;99.90
22426;DHT22;11380;50.822;15.790;2022-11-06T20:42:50;2.00;1.00
22426;DHT22;11380;50.822;15.790;2022-11-06T20:47:55;2.30;29.20
22426;DHT22;11380;50.822;15.790;2022-11-06T20:53:00;2.20;25.30
22426;DHT22;11380;50.822;15.790;2022-11-06T20:58:05;2.10;1.00
22426;DHT22;11380;50.822;15.790;2022-11-06T21:03:12;2.10;1.00
22426;DHT22;11380;50.822;15.790;2022-11-06T21:08:17;2.00;1.00
22426;DHT22;11380;50.822;15.790;2022-11-06T21:13:23;1.90;1.00
22426;DHT22;11380;50.822;15.790;2022-11-06T21:18:29;2.00;1.00
22426;DHT22;11380;50.822;15.790;2022-11-06T21:23:36;2.20;1.00
22426;DHT22;11380;50.822;15.790;2022-11-06T21:28:41;2.20;1.00
22426;DHT22;11380;50.822;15.790;2022-11-06T21:33:48;2.00;1.00
22426;DHT22;11380;50.822;15.790;2022-11-06T21:38:57;2.10;1.00
22426;DHT22;11380;50.822;15.790;2022-11-06T21:44:04;2.50;1.00
22426;DHT22;11380;50.822;15.790;2022-11-06T21:49:10;2.20;1.00
22426;DHT22;11380;50.822;15.790;2022-11-06T21:54:16;2.30;1.00
22426;DHT22;11380;50.822;15.790;2022-11-06T21:59:39;2.40;1.00
22426;DHT22;11380;50.822;15.790;2022-11-06T22:04:45;2.40;1.00
22426;DHT22;11380;50.822;15.790;2022-11-06T22:09:51;2.20;1.00
22426;DHT22;11380;50.822;15.790;2022-11-06T22:14:57;2.40;1.00
22426;DHT22;11380;50.822;15.790;2022-11-06T22:20:02;2.00;1.00
22426;DHT22;11380;50.822;15.790;2022-11-06T22:25:07;2.10;1.00
22426;DHT22;11380;50.822;15.790;2022-11-06T22:30:12;2.40;1.00
22426;DHT22;11380;50.822;15.790;2022-11-06T22:35:17;2.20;1.00
22426;DHT22;11380;50.822;15.790;2022-11-06T22:40:22;1.90;1.00
22426;DHT22;11380;50.822;15.790;2022-11-06T22:45:30;2.20;1.00
22426;DHT22;11380;50.822;15.790;2022-11-06T22:50:37;2.30;1.00
22426;DHT22;11380;50.822;15.790;2022-11-06T22:55:42;2.10;1.00
22426;DHT22;11380;50.822;15.790;2022-11-06T23:00:51;1.80;1.00
22426;DHT22;11380;50.822;15.790;2022-11-06T23:05:57;2.10;1.00
22426;DHT22;11380;50.822;15.790;2022-11-06T23:11:09;2.00;1.00
22426;DHT22;11380;50.822;15.790;2022-11-06T23:16:20;2.10;1.00
22426;DHT22;11380;50.822;15.790;2022-11-06T23:21:44;1.90;1.00
22426;DHT22;11380;50.822;15.790;2022-11-06T23:26:49;2.00;1.00
22426;DHT22;11380;50.822;15.790;2022-11-06T23:31:54;2.00;1.00
22426;DHT22;11380;50.822;15.790;2022-11-06T23:36:59;1.30;1.00
22426;DHT22;11380;50.822;15.790;2022-11-06T23:42:04;1.80;1.00
22426;DHT22;11380;50.822;15.790;2022-11-06T23:47:10;1.90;1.00
22426;DHT22;11380;50.822;15.790;2022-11-06T23:52:16;1.80;1.00
22426;DHT22;11380;50.822;15.790;2022-11-06T23:57:21;1.90;1.00
